Time;durP1;ratioP1;P1;durP2;ratioP2;P2;SDS_P1;SDS_P2;PMS_P1;PMS_P2;Temp;Humidity;BMP_temperature;BMP_pressure;BME280_temperature;BME280_humidity;BME280_pressure;Samples;Min_cycle;Max_cycle;Signal;HPM_P1;HPM_P2
2024/01/26 00:01:54;;;;;;;34.63;18.95;;;;;;;4.91;100.00;102235.13;10222500;28;20037;-69
2024/01/26 00:06:51;;;;;;;41.15;18.95;;;;;;;4.90;100.00;102230.78;10226885;28;20041;-69
2024/01/26 00:11:49;;;;;;;30.10;19.55;;;;;;;4.89;100.00;102221.00;10227404;28;20429;-70
2024/01/26 00:16:45;;;;;;;32.00;18.23;;;;;;;4.85;100.00;102216.09;10226946;28;20142;-71
2024/01/26 00:21:42;;;;;;;30.80;18.38;;;;;;;4.85;100.00;102197.09;10228758;28;20179;-68
2024/01/26 00:26:38;;;;;;;36.78;17.98;;;;;;;4.79;100.00;102199.97;10217821;28;20441;-68
2024/01/26 00:31:35;;;;;;;37.15;18.25;;;;;;;4.80;100.00;102193.47;10227551;28;20041;-68
2024/01/26 00:36:31;;;;;;;32.05;18.48;;;;;;;4.81;100.00;102187.81;10233480;28;20042;-67
2024/01/26 00:41:28;;;;;;;32.00;18.77;;;;;;;4.81;100.00;102185.09;10235048;28;20509;-69
2024/01/26 00:46:24;;;;;;;27.58;17.60;;;;;;;4.87;100.00;102190.59;10226272;28;20103;-68
2024/01/26 00:51:21;;;;;;;33.65;18.10;;;;;;;4.91;100.00;102186.34;10234999;28;20049;-69
2024/01/26 00:56:18;;;;;;;26.00;17.77;;;;;;;4.94;100.00;102175.84;10232766;28;20049;-70
2024/01/26 01:01:14;;;;;;;32.15;17.60;;;;;;;4.97;100.00;102174.53;10227199;28;20061;-71
2024/01/26 01:06:11;;;;;;;36.80;17.98;;;;;;;4.96;100.00;102156.63;10223840;28;20494;-69
2024/01/26 01:11:07;;;;;;;38.75;18.95;;;;;;;4.95;100.00;102152.28;10228115;28;20038;-69
2024/01/26 01:16:04;;;;;;;38.10;19.20;;;;;;;4.92;100.00;102155.47;10229921;28;20129;-69
2024/01/26 01:21:00;;;;;;;41.95;19.92;;;;;;;4.89;100.00;102153.25;10233481;28;20476;-69
2024/01/26 01:25:57;;;;;;;35.45;18.88;;;;;;;4.96;100.00;102151.19;10230538;28;20049;-68
2024/01/26 01:30:53;;;;;;;32.38;18.52;;;;;;;4.94;100.00;102137.06;10230216;28;20038;-69
2024/01/26 01:35:50;;;;;;;37.03;20.33;;;;;;;4.96;100.00;102129.50;10229035;28;20168;-69
2024/01/26 01:40:47;;;;;;;34.10;19.27;;;;;;;5.00;100.00;102125.25;10232179;28;20041;-69
2024/01/26 01:45:44;;;;;;;38.95;19.73;;;;;;;5.00;100.00;102114.41;10231715;28;20064;-69
2024/01/26 01:50:41;;;;;;;30.95;19.95;;;;;;;5.02;100.00;102106.84;10226873;28;20489;-69
2024/01/26 01:55:40;;;;;;;40.80;19.58;;;;;;;4.90;100.00;102093.38;10231875;28;20045;-69
2024/01/26 02:00:37;;;;;;;38.75;19.35;;;;;;;4.88;100.00;102092.00;10227107;28;20419;-69
2024/01/26 02:05:34;;;;;;;33.15;19.90;;;;;;;4.89;100.00;102077.34;10228657;28;20041;-69
2024/01/26 02:10:32;;;;;;;28.80;19.08;;;;;;;4.93;100.00;102070.38;10230672;28;20061;-69
2024/01/26 02:15:28;;;;;;;39.75;21.27;;;;;;;4.93;100.00;102054.13;10231278;28;20048;-71
2024/01/26 02:20:25;;;;;;;36.40;19.92;;;;;;;4.90;100.00;102043.75;10230428;28;20504;-72
2024/01/26 02:25:39;;;;;;;37.45;21.10;;;;;;;4.99;100.00;102036.84;10199506;28;20501;-68
2024/01/26 02:30:36;;;;;;;37.50;20.45;;;;;;;4.99;100.00;102020.59;10197286;28;20045;-68
2024/01/26 02:35:32;;;;;;;31.15;20.45;;;;;;;5.04;100.00;102017.97;10192050;28;20064;-70
2024/01/26 02:40:29;;;;;;;35.35;20.65;;;;;;;4.98;100.00;102010.81;10225077;28;20045;-71
2024/01/26 02:45:26;;;;;;;41.92;20.92;;;;;;;5.09;100.00;102003.69;10225021;28;20049;-69
2024/01/26 02:50:23;;;;;;;38.75;21.05;;;;;;;5.17;100.00;102012.19;10224356;28;20054;-69
2024/01/26 02:55:19;;;;;;;37.75;23.25;;;;;;;5.12;100.00;102006.69;10224669;28;20056;-72
2024/01/26 03:00:16;;;;;;;34.10;20.23;;;;;;;5.10;100.00;101979.00;10229755;28;20095;-71
2024/01/26 03:05:13;;;;;;;37.70;20.52;;;;;;;5.08;100.00;101967.59;10229868;28;20041;-72
2024/01/26 03:10:10;;;;;;;40.40;20.33;;;;;;;5.10;100.00;101954.59;10219298;28;20413;-70
2024/01/26 03:15:07;;;;;;;35.58;20.13;;;;;;;5.12;100.00;101933.50;10204231;28;20053;-69
2024/01/26 03:20:04;;;;;;;43.58;22.05;;;;;;;5.13;100.00;101921.59;10193565;28;20603;-69
2024/01/26 03:25:02;;;;;;;28.70;20.08;;;;;;;5.17;100.00;101897.50;10187454;28;20074;-72
2024/01/26 03:29:58;;;;;;;37.38;21.40;;;;;;;5.21;100.00;101887.78;10195450;28;20053;-70
2024/01/26 03:34:55;;;;;;;41.53;21.67;;;;;;;5.14;100.00;101876.31;10226900;28;20068;-71
2024/01/26 03:39:52;;;;;;;45.40;23.10;;;;;;;5.24;100.00;101882.69;10223080;28;20163;-70
2024/01/26 03:44:49;;;;;;;42.30;22.98;;;;;;;5.31;100.00;101881.66;10221062;28;20052;-71
2024/01/26 03:49:45;;;;;;;45.20;22.17;;;;;;;5.32;100.00;101877.88;10227601;28;20045;-71
2024/01/26 03:54:42;;;;;;;36.83;22.30;;;;;;;5.36;100.00;101868.16;10227845;28;20476;-71
2024/01/26 03:59:39;;;;;;;39.72;22.25;;;;;;;5.42;100.00;101856.28;10226402;28;20795;-70
2024/01/26 04:04:36;;;;;;;38.60;23.20;;;;;;;5.42;100.00;101851.69;10236479;28;20041;-70
2024/01/26 04:09:32;;;;;;;37.08;23.05;;;;;;;5.49;100.00;101846.06;10234925;28;20050;-72
2024/01/26 04:14:29;;;;;;;37.50;23.17;;;;;;;5.49;100.00;101840.63;10232123;28;20037;-70
2024/01/26 04:19:25;;;;;;;34.70;21.25;;;;;;;5.46;100.00;101831.13;10233029;28;20053;-72
2024/01/26 04:24:22;;;;;;;30.70;20.75;;;;;;;5.44;100.00;101810.75;10235279;28;20049;-72
2024/01/26 04:29:18;;;;;;;35.47;20.98;;;;;;;5.46;100.00;101797.75;10228632;28;20053;-70
2024/01/26 04:34:15;;;;;;;36.85;21.58;;;;;;;5.50;100.00;101777.19;10233591;28;20048;-71
2024/01/26 04:39:12;;;;;;;39.60;21.60;;;;;;;5.54;100.00;101772.03;10234577;28;20137;-70
2024/01/26 04:44:09;;;;;;;35.42;21.65;;;;;;;5.57;100.00;101755.22;10227875;28;20052;-70
2024/01/26 04:49:06;;;;;;;34.70;21.10;;;;;;;5.56;100.00;101740.03;10231418;28;20053;-68
2024/01/26 04:54:03;;;;;;;35.05;21.85;;;;;;;5.61;100.00;101724.63;10232957;28;20072;-70
2024/01/26 04:58:59;;;;;;;36.28;21.08;;;;;;;5.54;100.00;101718.59;10234336;28;20041;-70
2024/01/26 05:03:56;;;;;;;40.33;22.90;;;;;;;5.59;100.00;101694.25;10226123;28;20049;-71
2024/01/26 05:08:53;;;;;;;43.42;22.33;;;;;;;5.62;100.00;101666.56;10232606;28;20053;-71
2024/01/26 05:13:49;;;;;;;40.90;21.95;;;;;;;5.69;100.00;101640.03;10219975;28;20046;-71
2024/01/26 05:18:46;;;;;;;36.88;22.17;;;;;;;5.73;100.00;101634.06;10233155;28;20049;-71
2024/01/26 05:23:42;;;;;;;32.80;23.00;;;;;;;5.79;100.00;101620.28;10230525;28;20041;-71
2024/01/26 05:28:39;;;;;;;49.20;22.85;;;;;;;5.83;100.00;101612.44;10230761;28;20100;-74
2024/01/26 05:33:36;;;;;;;36.35;23.10;;;;;;;5.86;100.00;101579.31;10228074;28;20579;-69
2024/01/26 05:38:32;;;;;;;42.40;22.75;;;;;;;5.89;100.00;101557.06;10230480;28;20060;-71
2024/01/26 05:43:29;;;;;;;46.15;22.83;;;;;;;5.85;100.00;101553.28;10230970;28;20052;-71
2024/01/26 05:48:25;;;;;;;46.38;22.67;;;;;;;5.98;100.00;101547.34;10225499;28;20459;-69
2024/01/26 05:53:22;;;;;;;41.42;23.60;;;;;;;6.04;100.00;101538.16;10234450;28;20049;-73
2024/01/26 05:58:19;;;;;;;46.60;25.85;;;;;;;6.09;100.00;101530.03;10240883;28;20436;-73
2024/01/26 06:03:15;;;;;;;47.40;23.95;;;;;;;6.20;100.00;101532.78;10229703;28;20079;-73
2024/01/26 06:08:12;;;;;;;42.30;24.23;;;;;;;6.16;100.00;101518.09;10220103;28;20821;-73
2024/01/26 06:13:08;;;;;;;40.75;23.60;;;;;;;6.26;100.00;101504.53;10243217;28;20096;-72
2024/01/26 06:18:05;;;;;;;47.88;25.88;;;;;;;6.23;100.00;101491.50;10224576;28;20041;-75
2024/01/26 06:23:02;;;;;;;43.78;24.00;;;;;;;6.31;100.00;101461.91;10232805;28;20076;-71
2024/01/26 06:27:58;;;;;;;57.78;25.15;;;;;;;6.34;100.00;101449.69;10230435;28;20076;-72
2024/01/26 06:32:55;;;;;;;44.45;23.42;;;;;;;6.36;100.00;101460.25;10230075;28;20060;-75
2024/01/26 06:37:52;;;;;;;46.17;24.05;;;;;;;6.33;100.00;101458.91;10228804;28;20065;-73
2024/01/26 06:42:48;;;;;;;46.33;24.60;;;;;;;6.35;100.00;101439.63;10228030;28;20038;-73
2024/01/26 06:47:45;;;;;;;48.75;23.50;;;;;;;6.39;100.00;101414.38;10229260;28;20053;-71
2024/01/26 06:52:42;;;;;;;50.75;25.20;;;;;;;6.37;100.00;101416.53;10223921;28;20041;-70
2024/01/26 06:57:38;;;;;;;43.90;23.83;;;;;;;6.46;100.00;101404.03;10233313;28;20041;-72
2024/01/26 07:02:35;;;;;;;54.35;23.45;;;;;;;6.49;100.00;101381.75;10222456;28;20049;-71
2024/01/26 07:07:32;;;;;;;46.42;23.70;;;;;;;6.53;100.00;101382.84;10224397;28;20547;-70
2024/01/26 07:12:29;;;;;;;46.85;22.98;;;;;;;6.52;100.00;101374.94;10239366;28;20099;-71
2024/01/26 07:17:25;;;;;;;50.90;25.60;;;;;;;6.58;100.00;101373.88;10232164;28;20132;-73
2024/01/26 07:22:22;;;;;;;44.22;23.23;;;;;;;6.56;100.00;101369.78;10232157;28;20045;-71
2024/01/26 07:27:19;;;;;;;54.53;23.88;;;;;;;6.56;100.00;101350.78;10228018;28;20053;-71
2024/01/26 07:32:15;;;;;;;45.67;24.73;;;;;;;6.55;100.00;101344.53;10222719;28;20113;-72
2024/01/26 07:37:12;;;;;;;50.45;25.50;;;;;;;6.62;100.00;101336.09;10217217;28;20081;-76
2024/01/26 07:42:08;;;;;;;40.88;24.65;;;;;;;6.69;100.00;101304.81;10227384;28;20076;-72
2024/01/26 07:47:05;;;;;;;51.20;23.05;;;;;;;6.75;100.00;101308.31;10230946;28;20046;-70
2024/01/26 07:52:01;;;;;;;52.70;24.98;;;;;;;6.73;100.00;101299.66;10226289;28;21175;-74
2024/01/26 07:56:58;;;;;;;43.90;24.65;;;;;;;6.86;100.00;101280.00;10238863;28;20053;-71
2024/01/26 08:01:54;;;;;;;49.47;27.23;;;;;;;7.00;100.00;101254.94;10229011;28;20050;-71
2024/01/26 08:06:51;;;;;;;53.28;27.55;;;;;;;7.08;100.00;101240.75;10227634;28;20072;-71
2024/01/26 08:11:49;;;;;;;45.53;25.55;;;;;;;7.21;100.00;101229.22;10227182;28;20037;-73
2024/01/26 08:16:48;;;;;;;41.72;26.92;;;;;;;7.27;100.00;101222.69;10227041;28;20778;-72
2024/01/26 08:21:45;;;;;;;47.08;28.15;;;;;;;7.40;100.00;101234.81;10233003;28;20041;-71
2024/01/26 08:26:41;;;;;;;46.60;26.70;;;;;;;7.54;100.00;101200.44;10225617;28;20696;-70
2024/01/26 08:31:38;;;;;;;43.72;24.65;;;;;;;7.73;100.00;101183.38;10227513;28;20424;-73
2024/01/26 08:36:35;;;;;;;38.70;25.30;;;;;;;7.83;100.00;101163.41;10223193;28;20136;-73
2024/01/26 08:41:31;;;;;;;40.42;26.17;;;;;;;7.89;100.00;101151.34;10226994;28;20048;-71
2024/01/26 08:46:28;;;;;;;40.97;26.30;;;;;;;7.85;100.00;101150.34;10233391;28;20050;-73
2024/01/26 08:51:25;;;;;;;44.92;25.88;;;;;;;7.82;100.00;101140.00;10232825;28;20586;-72
2024/01/26 08:56:21;;;;;;;39.90;24.35;;;;;;;7.82;100.00;101134.56;10239510;28;20532;-71
2024/01/26 09:01:19;;;;;;;35.80;19.52;;;;;;;7.82;100.00;101123.66;10232191;28;20049;-71
2024/01/26 09:06:16;;;;;;;38.55;22.85;;;;;;;7.84;100.00;101105.13;10233598;28;20041;-71
2024/01/26 09:11:12;;;;;;;42.90;23.50;;;;;;;7.86;100.00;101089.31;10238372;28;20497;-73
2024/01/26 09:16:11;;;;;;;43.42;22.23;;;;;;;7.92;100.00;101090.91;10225378;28;20045;-72
2024/01/26 09:21:13;;;;;;;34.95;20.27;;;;;;;7.95;100.00;101073.97;10232999;28;20143;-72
2024/01/26 09:26:10;;;;;;;;;;;;;;;7.94;100.00;101050.56;10221643;28;20052;-71
2024/01/26 09:31:06;;;;;;;34.92;19.83;;;;;;;7.94;100.00;101045.94;10232081;28;19982;-73
2024/01/26 09:36:03;;;;;;;30.75;18.10;;;;;;;7.98;100.00;101032.53;10232202;28;20467;-73
2024/01/26 09:41:00;;;;;;;27.45;17.55;;;;;;;8.00;100.00;101028.41;10229103;28;20572;-72
2024/01/26 09:45:57;;;;;;;26.13;16.88;;;;;;;8.00;100.00;101005.81;10231890;28;20053;-72
2024/01/26 09:50:53;;;;;;;24.60;15.80;;;;;;;8.05;100.00;101008.47;10239210;28;20090;-75
2024/01/26 09:55:52;;;;;;;27.38;15.48;;;;;;;8.09;100.00;101003.25;10233254;28;20046;-75
2024/01/26 10:00:50;;;;;;;25.25;15.13;;;;;;;8.10;100.00;100994.81;10238456;28;20045;-74
2024/01/26 10:05:46;;;;;;;21.05;14.20;;;;;;;8.16;100.00;100977.25;10223379;28;20052;-75
2024/01/26 10:10:43;;;;;;;23.73;14.48;;;;;;;8.22;100.00;100976.09;10226167;28;20042;-75
2024/01/26 10:15:39;;;;;;;21.30;13.55;;;;;;;8.28;100.00;100968.63;10193451;28;20060;-75
2024/01/26 10:20:36;;;;;;;18.02;13.50;;;;;;;8.32;100.00;100957.97;10186633;28;20524;-76
2024/01/26 10:25:35;;;;;;;19.10;12.30;;;;;;;8.36;100.00;100951.63;10178186;28;20125;-77
2024/01/26 10:30:32;;;;;;;18.33;12.73;;;;;;;8.47;100.00;100944.16;10190963;28;20126;-75
2024/01/26 10:35:30;;;;;;;15.60;11.52;;;;;;;8.52;100.00;100938.59;10230183;28;20463;-75
2024/01/26 10:40:30;;;;;;;13.70;10.18;;;;;;;8.56;100.00;100920.56;10230426;28;20049;-73
2024/01/26 10:45:28;;;;;;;13.65;10.65;;;;;;;8.67;100.00;100909.47;10229543;28;20467;-74
2024/01/26 10:50:25;;;;;;;11.48;8.90;;;;;;;8.69;100.00;100916.22;10236225;28;20045;-74
2024/01/26 10:55:21;;;;;;;14.38;9.98;;;;;;;8.71;100.00;100905.03;10237643;28;20085;-75
2024/01/26 11:00:18;;;;;;;14.18;10.18;;;;;;;8.75;100.00;100884.22;10225930;28;20050;-74
2024/01/26 11:05:15;;;;;;;13.70;9.88;;;;;;;8.76;100.00;100874.94;10221714;28;20042;-74
2024/01/26 11:10:19;;;;;;;11.45;9.50;;;;;;;8.79;100.00;100864.22;10228512;28;20053;-73
2024/01/26 11:15:18;;;;;;;13.30;9.40;;;;;;;8.83;100.00;100859.78;10215370;28;20053;-74
2024/01/26 11:20:25;;;;;;;11.35;8.98;;;;;;;8.81;100.00;100856.56;10232674;28;20443;-76
2024/01/26 11:25:22;;;;;;;11.63;8.98;;;;;;;8.86;100.00;100858.38;10221963;28;20052;-73
2024/01/26 11:30:24;;;;;;;12.45;8.00;;;;;;;8.96;100.00;100835.56;10221220;28;20465;-75
2024/01/26 11:35:20;;;;;;;14.10;9.40;;;;;;;8.97;100.00;100816.16;10220563;28;20136;-74
2024/01/26 11:40:19;;;;;;;17.75;9.85;;;;;;;8.98;100.00;100828.69;10220408;28;20468;-75
2024/01/26 11:45:31;;;;;;;13.65;9.13;;;;;;;8.97;100.00;100857.06;10219951;28;20103;-75
2024/01/26 11:50:28;;;;;;;9.30;6.63;;;;;;;8.99;100.00;100905.88;10222862;28;20053;-73
2024/01/26 11:55:25;;;;;;;6.25;5.68;;;;;;;8.75;100.00;100916.94;10209564;28;20123;-74
2024/01/26 12:00:22;;;;;;;14.13;6.80;;;;;;;8.48;100.00;100940.31;10229412;28;20051;-73
2024/01/26 12:05:19;;;;;;;8.65;7.90;;;;;;;8.33;100.00;100959.56;10226060;28;20430;-74
2024/01/26 12:10:17;;;;;;;15.75;9.40;;;;;;;8.04;100.00;100946.94;10227629;28;20149;-76
2024/01/26 12:15:14;;;;;;;17.08;11.05;;;;;;;7.83;100.00;100961.97;10226769;28;20077;-75
2024/01/26 12:20:11;;;;;;;19.20;9.43;;;;;;;7.66;100.00;100990.50;10232138;28;20041;-74
2024/01/26 12:25:13;;;;;;;18.92;10.07;;;;;;;7.52;100.00;101000.44;10233424;28;20049;-76
2024/01/26 12:30:11;;;;;;;16.43;10.37;;;;;;;7.44;100.00;101069.09;10233384;28;20042;-74
2024/01/26 12:35:08;;;;;;;18.52;10.70;;;;;;;7.29;100.00;101084.50;10228493;28;20115;-77
2024/01/26 12:40:06;;;;;;;11.13;9.13;;;;;;;7.14;100.00;101130.84;10235682;28;20041;-77
2024/01/26 12:45:03;;;;;;;24.20;11.55;;;;;;;6.97;100.00;101180.19;10231864;28;20447;-78
2024/01/26 12:49:59;;;;;;;26.42;11.98;;;;;;;6.91;100.00;101176.69;10233829;28;20041;-75
2024/01/26 12:54:56;;;;;;;15.27;10.30;;;;;;;6.84;100.00;101197.94;10227486;28;20045;-76
2024/01/26 12:59:52;;;;;;;21.42;11.90;;;;;;;6.77;100.00;101246.34;10233203;28;20042;-76
2024/01/26 13:04:52;;;;;;;16.02;10.45;;;;;;;6.85;100.00;101243.06;10234881;28;20068;-77
2024/01/26 13:09:49;;;;;;;13.55;10.60;;;;;;;6.80;100.00;101245.81;10239093;28;20041;-81
2024/01/26 13:14:46;;;;;;;19.02;10.93;;;;;;;6.78;100.00;101302.34;10231907;28;20046;-76
2024/01/26 13:19:43;;;;;;;24.30;12.18;;;;;;;6.71;100.00;101299.13;10243158;28;20037;-82
2024/01/26 13:24:40;;;;;;;18.02;11.90;;;;;;;6.67;100.00;101319.78;10223381;28;20049;-74
2024/01/26 13:29:36;;;;;;;25.50;12.00;;;;;;;6.57;100.00;101319.78;10225491;28;20042;-77
2024/01/26 13:34:33;;;;;;;16.00;11.40;;;;;;;6.58;100.00;101308.66;10233430;28;20136;-76
2024/01/26 13:39:30;;;;;;;26.70;12.65;;;;;;;6.56;100.00;101307.31;10227170;28;20517;-75
2024/01/26 13:44:27;;;;;;;22.00;13.07;;;;;;;6.57;100.00;101334.22;10226148;28;20045;-74
2024/01/26 13:49:24;;;;;;;19.63;12.57;;;;;;;6.56;100.00;101353.50;10229856;28;20517;-74
2024/01/26 13:54:21;;;;;;;22.55;14.43;;;;;;;6.44;100.00;101373.63;10218766;28;20590;-73
2024/01/26 13:59:17;;;;;;;22.33;12.73;;;;;;;6.41;100.00;101401.34;10230212;28;20056;-76
2024/01/26 14:04:14;;;;;;;24.00;10.80;;;;;;;6.31;100.00;101425.75;10230015;28;20053;-77
2024/01/26 14:09:12;;;;;;;25.73;13.95;;;;;;;6.15;100.00;101432.28;10228001;28;20113;-74
2024/01/26 14:14:09;;;;;;;14.20;12.75;;;;;;;6.08;100.00;101444.25;10224732;28;20041;-71
2024/01/26 14:19:06;;;;;;;16.98;11.20;;;;;;;5.92;100.00;101458.84;10225261;28;20110;-72
2024/01/26 14:24:04;;;;;;;28.05;13.35;;;;;;;5.86;100.00;101492.47;10228909;28;20050;-74
2024/01/26 14:29:03;;;;;;;17.42;13.32;;;;;;;5.89;100.00;101540.78;10230350;28;20037;-73
2024/01/26 14:34:00;;;;;;;20.67;11.30;;;;;;;5.90;100.00;101564.16;10239349;28;20398;-73
2024/01/26 14:38:57;;;;;;;23.17;12.13;;;;;;;5.90;100.00;101583.16;10244135;28;20135;-73
2024/01/26 14:43:53;;;;;;;17.50;11.30;;;;;;;5.88;100.00;101610.53;10231980;28;20049;-73
2024/01/26 14:48:50;;;;;;;23.23;12.02;;;;;;;5.76;100.00;101636.28;10234640;28;20106;-73
2024/01/26 14:53:47;;;;;;;19.90;11.07;;;;;;;5.77;100.00;101646.84;10228824;28;20050;-74
2024/01/26 14:58:43;;;;;;;24.45;11.82;;;;;;;5.82;100.00;101692.19;10229192;28;20045;-73
2024/01/26 15:03:40;;;;;;;28.38;12.98;;;;;;;5.84;100.00;101733.47;10226975;28;20141;-74
2024/01/26 15:08:36;;;;;;;25.42;11.57;;;;;;;5.84;100.00;101733.47;10230014;28;20045;-73
2024/01/26 15:13:34;;;;;;;20.08;10.70;;;;;;;5.80;100.00;101764.91;10231266;28;20040;-73
2024/01/26 15:18:32;;;;;;;27.77;10.65;;;;;;;5.82;100.00;101762.75;10217165;28;20563;-73
2024/01/26 15:23:29;;;;;;;29.80;12.15;;;;;;;5.79;100.00;101801.28;10230972;28;20073;-73
2024/01/26 15:28:26;;;;;;;40.53;12.10;;;;;;;5.74;100.00;101809.41;10224379;28;20049;-74
2024/01/26 15:33:22;;;;;;;22.75;12.40;;;;;;;5.73;100.00;101802.31;10224462;28;20123;-73
2024/01/26 15:38:19;;;;;;;24.95;11.80;;;;;;;5.73;100.00;101851.16;10224740;28;20115;-74
2024/01/26 15:43:15;;;;;;;24.52;11.48;;;;;;;5.65;100.00;101855.97;10222388;28;20057;-74
2024/01/26 15:48:12;;;;;;;22.88;11.85;;;;;;;5.60;100.00;101874.13;10221903;28;20053;-74
2024/01/26 15:53:09;;;;;;;26.75;11.98;;;;;;;5.51;100.00;101903.59;10229886;28;20683;-73
2024/01/26 15:58:05;;;;;;;24.10;12.90;;;;;;;5.46;100.00;101900.81;10228958;28;20041;-73
2024/01/26 16:03:03;;;;;;;16.25;11.30;;;;;;;5.37;100.00;101934.91;10233501;28;20146;-74
2024/01/26 16:07:59;;;;;;;18.63;12.38;;;;;;;5.34;100.00;101925.38;10233162;28;20096;-73
2024/01/26 16:12:56;;;;;;;20.95;11.73;;;;;;;5.40;100.00;101953.38;10230811;28;20061;-74
2024/01/26 16:17:52;;;;;;;19.20;11.13;;;;;;;5.40;100.00;101962.31;10236168;28;20103;-73
2024/01/26 16:22:49;;;;;;;26.50;13.60;;;;;;;5.43;100.00;101994.38;10219273;28;20234;-73
2024/01/26 16:27:45;;;;;;;21.92;12.27;;;;;;;5.42;100.00;102019.03;10209377;28;20057;-73
2024/01/26 16:32:42;;;;;;;28.20;13.25;;;;;;;5.41;100.00;102031.78;10205952;28;20046;-73
2024/01/26 16:37:39;;;;;;;23.70;13.82;;;;;;;5.27;100.00;102012.34;10203991;28;20562;-74
2024/01/26 16:42:35;;;;;;;33.65;13.77;;;;;;;5.30;100.00;102042.75;10206321;28;20052;-72
2024/01/26 16:47:32;;;;;;;29.08;13.07;;;;;;;5.29;100.00;102052.75;10195700;28;20049;-72
2024/01/26 16:52:28;;;;;;;30.20;15.70;;;;;;;5.28;100.00;102046.50;10217341;28;20119;-74
2024/01/26 16:57:25;;;;;;;24.67;13.00;;;;;;;5.42;100.00;102084.13;10225583;28;20064;-72
2024/01/26 17:02:22;;;;;;;25.98;12.18;;;;;;;5.43;100.00;102085.75;10235074;28;20049;-72
2024/01/26 17:07:19;;;;;;;24.20;12.30;;;;;;;5.36;100.00;102104.97;10228800;28;20099;-73
2024/01/26 17:12:15;;;;;;;25.50;12.30;;;;;;;5.41;100.00;102115.06;10233815;28;20054;-74
2024/01/26 17:17:12;;;;;;;28.20;12.20;;;;;;;5.44;100.00;102136.25;10233294;28;20052;-73
2024/01/26 17:22:09;;;;;;;26.48;12.65;;;;;;;5.48;100.00;102129.25;10234383;28;20045;-73
2024/01/26 17:27:06;;;;;;;24.70;12.25;;;;;;;5.49;100.00;102149.88;10229295;28;20045;-72
2024/01/26 17:32:04;;;;;;;29.40;11.73;;;;;;;5.51;100.00;102163.22;10229234;28;20099;-73
2024/01/26 17:37:00;;;;;;;18.20;9.82;;;;;;;5.43;100.00;102180.72;10233214;28;20038;-72
2024/01/26 17:41:57;;;;;;;29.20;12.57;;;;;;;5.47;100.00;102195.44;10234309;28;20459;-73
2024/01/26 17:46:53;;;;;;;27.45;11.88;;;;;;;5.45;100.00;102203.84;10230700;28;20045;-73
2024/01/26 17:51:53;;;;;;;29.90;13.38;;;;;;;5.37;100.00;102211.56;10231373;28;20056;-73
2024/01/26 17:56:50;;;;;;;30.80;13.00;;;;;;;5.34;100.00;102214.72;10229001;28;20038;-73
2024/01/26 18:01:47;;;;;;;24.73;12.68;;;;;;;5.27;100.00;102223.88;10232090;28;20546;-74
2024/01/26 18:06:44;;;;;;;28.30;13.70;;;;;;;5.15;100.00;102236.69;10230278;28;20038;-73
2024/01/26 18:11:41;;;;;;;31.52;14.45;;;;;;;5.13;100.00;102265.94;10220024;28;20045;-74
2024/01/26 18:16:38;;;;;;;20.90;12.48;;;;;;;5.11;100.00;102257.22;10198664;28;20104;-75
2024/01/26 18:21:34;;;;;;;25.00;12.48;;;;;;;5.16;100.00;102276.28;10231797;28;20121;-74
2024/01/26 18:26:31;;;;;;;28.42;13.38;;;;;;;5.20;100.00;102277.44;10227473;28;20222;-73
2024/01/26 18:31:29;;;;;;;23.73;12.48;;;;;;;5.13;100.00;102276.78;10227735;28;20050;-73
2024/01/26 18:36:27;;;;;;;24.70;11.93;;;;;;;5.16;100.00;102289.84;10230282;28;20117;-73
2024/01/26 18:41:25;;;;;;;24.73;12.13;;;;;;;5.14;100.00;102289.25;10230607;28;20124;-73
2024/01/26 18:46:22;;;;;;;35.00;16.02;;;;;;;5.10;100.00;102315.19;10225463;28;20053;-73
2024/01/26 18:51:19;;;;;;;30.10;13.10;;;;;;;5.07;100.00;102304.84;10231719;28;20053;-74
2024/01/26 18:56:17;;;;;;;33.63;14.85;;;;;;;5.02;100.00;102308.28;10230094;28;20072;-74
2024/01/26 19:01:13;;;;;;;37.08;14.00;;;;;;;5.07;100.00;102330.06;10235542;28;20087;-74
2024/01/26 19:06:12;;;;;;;33.33;15.23;;;;;;;5.15;100.00;102344.28;10231029;28;20501;-73
2024/01/26 19:11:09;;;;;;;24.50;12.85;;;;;;;5.15;100.00;102372.25;10229679;28;20065;-73
2024/01/26 19:16:06;;;;;;;25.40;14.18;;;;;;;5.10;100.00;102358.56;10223387;28;20057;-73
2024/01/26 19:21:02;;;;;;;25.40;14.02;;;;;;;5.07;100.00;102391.59;10229523;28;20509;-73
2024/01/26 19:25:59;;;;;;;25.85;14.50;;;;;;;5.00;100.00;102377.38;10226477;28;20150;-74
2024/01/26 19:30:57;;;;;;;16.05;11.35;;;;;;;4.95;100.00;102401.66;10228340;28;20099;-73
2024/01/26 19:35:54;;;;;;;27.45;12.50;;;;;;;4.84;100.00;102417.69;10226078;28;20049;-74
2024/01/26 19:40:53;;;;;;;23.45;12.38;;;;;;;4.84;100.00;102425.81;10229671;28;20128;-73
2024/01/26 19:45:50;;;;;;;22.55;12.80;;;;;;;4.91;100.00;102424.88;10222849;28;20046;-73
2024/01/26 19:50:46;;;;;;;27.88;11.57;;;;;;;4.84;100.00;102439.38;10229452;28;20045;-73
2024/01/26 19:55:43;;;;;;;30.50;13.38;;;;;;;4.79;100.00;102441.97;10226786;28;20064;-73
2024/01/26 20:00:39;;;;;;;28.13;11.57;;;;;;;4.83;100.00;102450.47;10225130;28;20056;-73
2024/01/26 20:05:36;;;;;;;28.50;12.15;;;;;;;4.82;100.00;102465.88;10226618;28;20045;-74
2024/01/26 20:10:33;;;;;;;24.27;10.02;;;;;;;4.88;100.00;102469.53;10224293;28;20128;-73
2024/01/26 20:15:29;;;;;;;17.77;8.35;;;;;;;4.94;100.00;102501.09;10222455;28;20468;-74
2024/01/26 20:20:26;;;;;;;31.98;9.82;;;;;;;4.98;100.00;102490.63;10220088;28;20487;-73
2024/01/26 20:25:22;;;;;;;20.75;8.75;;;;;;;4.98;100.00;102504.19;10223428;28;20045;-73
2024/01/26 20:30:23;;;;;;;28.40;10.73;;;;;;;5.00;100.00;102504.78;10227931;28;20492;-73
2024/01/26 20:35:22;;;;;;;31.13;10.70;;;;;;;4.96;100.00;102503.59;10217830;28;20370;-73
2024/01/26 20:40:19;;;;;;;20.95;8.25;;;;;;;4.92;100.00;102541.22;10229707;28;20528;-74
2024/01/26 20:45:15;;;;;;;36.60;10.02;;;;;;;4.77;100.00;102538.94;10231989;28;20111;-75
2024/01/26 20:50:12;;;;;;;40.08;10.75;;;;;;;4.74;100.00;102534.00;10225613;28;20053;-73
2024/01/26 20:55:09;;;;;;;23.20;9.75;;;;;;;4.71;100.00;102556.16;10234658;28;20515;-74
2024/01/26 21:00:06;;;;;;;21.40;9.10;;;;;;;4.73;100.00;102559.44;10233951;28;20513;-73
2024/01/26 21:05:03;;;;;;;29.00;10.45;;;;;;;4.72;100.00;102568.63;10234027;28;20046;-73
2024/01/26 21:09:59;;;;;;;23.30;9.40;;;;;;;4.69;100.00;102579.94;10221792;28;20099;-75
2024/01/26 21:14:56;;;;;;;18.35;8.95;;;;;;;4.66;100.00;102574.97;10233908;28;20045;-75
2024/01/26 21:19:52;;;;;;;33.42;9.52;;;;;;;4.62;100.00;102584.63;10230762;28;20034;-73
2024/01/26 21:24:49;;;;;;;20.50;9.60;;;;;;;4.55;100.00;102589.31;10235134;28;20072;-74
2024/01/26 21:29:51;;;;;;;25.00;9.32;;;;;;;4.50;100.00;102605.44;10233065;28;20041;-73
2024/01/26 21:34:48;;;;;;;17.48;9.27;;;;;;;4.38;100.00;102595.38;10229088;28;20041;-73
2024/01/26 21:39:45;;;;;;;23.95;9.80;;;;;;;4.33;100.00;102602.56;10232496;28;20477;-73
2024/01/26 21:44:44;;;;;;;27.30;9.73;;;;;;;4.40;100.00;102620.34;10233152;28;20049;-72
2024/01/26 21:49:41;;;;;;;29.45;9.73;;;;;;;4.43;100.00;102638.88;10199335;28;20041;-74
2024/01/26 21:54:38;;;;;;;31.27;10.75;;;;;;;4.53;100.00;102657.28;10226496;28;20473;-74
2024/01/26 21:59:34;;;;;;;30.25;9.90;;;;;;;4.59;100.00;102655.53;10231234;28;20052;-73
2024/01/26 22:04:31;;;;;;;31.27;11.05;;;;;;;4.63;100.00;102651.31;10229020;28;20493;-73
2024/01/26 22:09:28;;;;;;;28.90;10.95;;;;;;;4.62;100.00;102655.09;10231576;28;20077;-74
2024/01/26 22:14:24;;;;;;;25.20;11.30;;;;;;;4.58;100.00;102659.31;10231691;28;20068;-74